Terminal Aerodrome Forecast
Issued by NWS

Home | Current Version | Previous Version | Text Only | Print | Product List | Glossary On
Versions: 1 2 3 4 5 6 7 8 9 10 11 12 13 14
000
FTUS41 KPHI 202300
TAFMIV
TAF
KMIV 202320Z 2100/2124 16006KT P6SM BKN080
     FM210600 12004KT P6SM BKN050
      TEMPO 2108/2112 5SM BR SCT025
     FM211600 17008KT P6SM SCT040 BKN100
     FM212200 17008KT P6SM VCSH BKN040=

USA.gov is the U.S. government's official web portal to all federal, state and local government web resources and services.